createdAt,value
2023-11-30T00:01:03.278Z,4.63
2023-11-30T00:03:57.037Z,4.60
2023-11-30T00:06:48.433Z,4.97
2023-11-30T00:09:37.477Z,5.07
2023-11-30T00:12:24.302Z,5.10
2023-11-30T00:15:12.361Z,4.33
2023-11-30T00:18:01.817Z,4.67
2023-11-30T00:20:52.511Z,4.97
2023-11-30T00:23:39.569Z,5.57
2023-11-30T00:26:30.830Z,4.70
2023-11-30T00:29:27.467Z,4.97
2023-11-30T00:32:17.510Z,5.00
2023-11-30T00:35:10.018Z,4.50
2023-11-30T00:38:02.922Z,5.30
2023-11-30T00:40:51.224Z,4.47
2023-11-30T00:43:38.073Z,5.10
2023-11-30T00:46:25.695Z,5.30
2023-11-30T00:49:20.349Z,4.40
2023-11-30T00:52:09.785Z,3.93
2023-11-30T00:54:58.448Z,4.40
2023-11-30T00:57:49.634Z,4.70
2023-11-30T01:00:36.405Z,4.77
2023-11-30T01:03:27.636Z,4.00
2023-11-30T01:06:19.475Z,4.13
2023-11-30T01:09:09.431Z,4.13
2023-11-30T01:12:00.207Z,3.87
2023-11-30T01:14:50.172Z,4.37
2023-11-30T01:17:39.240Z,4.03
2023-11-30T01:20:26.412Z,3.53
2023-11-30T01:23:14.267Z,3.83
2023-11-30T01:26:27.358Z,3.60
2023-11-30T01:29:20.112Z,3.90
2023-11-30T01:32:07.341Z,4.03
2023-11-30T01:34:54.373Z,4.03
2023-11-30T01:37:41.348Z,4.30
2023-11-30T01:40:29.379Z,4.47
2023-11-30T01:43:20.945Z,4.70
2023-11-30T01:46:12.094Z,4.70
2023-11-30T01:49:01.380Z,3.57
2023-11-30T01:51:53.010Z,4.23
2023-11-30T01:54:42.838Z,5.20
2023-11-30T01:57:34.769Z,4.07
2023-11-30T02:00:29.708Z,4.93
2023-11-30T02:03:25.304Z,5.33
2023-11-30T02:06:18.630Z,4.30
2023-11-30T02:09:05.475Z,4.37
2023-11-30T02:11:57.471Z,4.30
2023-11-30T02:14:44.671Z,5.33
2023-11-30T02:17:33.803Z,4.63
2023-11-30T02:20:33.211Z,4.83
2023-11-30T02:23:22.845Z,4.80
2023-11-30T02:26:17.479Z,5.40
2023-11-30T02:29:04.523Z,4.70
2023-11-30T02:32:01.208Z,5.10
2023-11-30T02:34:50.520Z,5.63
2023-11-30T02:37:37.326Z,4.97
2023-11-30T02:40:30.613Z,5.03
2023-11-30T02:43:17.322Z,5.47
2023-11-30T02:46:08.929Z,4.83
2023-11-30T02:48:58.417Z,5.23
2023-11-30T02:51:47.869Z,4.63
2023-11-30T02:54:34.597Z,4.90
2023-11-30T02:57:28.022Z,4.03
2023-11-30T03:00:41.080Z,4.43
2023-11-30T03:03:27.893Z,4.67
2023-11-30T03:06:19.747Z,5.53
2023-11-30T03:09:07.193Z,4.17
2023-11-30T03:11:54.146Z,5.67
2023-11-30T03:14:48.096Z,4.50
2023-11-30T03:17:35.340Z,4.90
2023-11-30T03:20:24.511Z,6.10
2023-11-30T03:23:11.337Z,4.97
2023-11-30T03:25:59.331Z,4.87
2023-11-30T03:28:53.917Z,5.00
2023-11-30T03:31:42.446Z,4.10
2023-11-30T03:34:55.464Z,5.13
2023-11-30T03:37:45.212Z,4.97
2023-11-30T03:40:36.627Z,4.90
2023-11-30T03:43:23.540Z,5.10
2023-11-30T03:46:19.033Z,5.30
2023-11-30T03:49:10.289Z,5.27
2023-11-30T03:52:01.437Z,5.10
2023-11-30T03:54:50.603Z,5.97
2023-11-30T03:57:37.272Z,4.97
2023-11-30T04:00:24.502Z,4.53
2023-11-30T04:03:12.549Z,4.87
2023-11-30T04:06:05.937Z,5.33
2023-11-30T04:08:54.230Z,5.27
2023-11-30T04:11:42.288Z,4.50
2023-11-30T04:14:31.906Z,4.83
2023-11-30T04:17:21.618Z,6.10
2023-11-30T04:20:14.948Z,5.20
2023-11-30T04:23:05.866Z,5.47
2023-11-30T04:25:56.804Z,5.73
2023-11-30T04:28:45.557Z,5.70
2023-11-30T04:31:34.655Z,5.00
2023-11-30T04:34:47.281Z,4.73
2023-11-30T04:37:34.959Z,5.73
2023-11-30T04:40:25.071Z,5.47
2023-11-30T04:43:14.197Z,4.83
2023-11-30T04:46:09.082Z,4.80
2023-11-30T04:49:02.469Z,5.70
2023-11-30T04:51:49.224Z,5.20
2023-11-30T04:54:39.500Z,5.43
2023-11-30T04:57:27.813Z,5.27
2023-11-30T05:00:16.853Z,5.23
2023-11-30T05:03:04.730Z,5.47
2023-11-30T05:05:51.745Z,5.23
2023-11-30T05:08:39.379Z,5.87
2023-11-30T05:11:32.502Z,5.80
2023-11-30T05:14:21.201Z,4.73
2023-11-30T05:17:10.642Z,5.87
2023-11-30T05:19:58.615Z,4.40
2023-11-30T05:22:47.839Z,5.90
2023-11-30T05:25:35.343Z,4.17
2023-11-30T05:28:24.814Z,5.43
2023-11-30T05:31:18.072Z,5.00
2023-11-30T05:34:07.170Z,5.80
2023-11-30T05:36:56.758Z,6.97
2023-11-30T05:40:10.607Z,6.00
2023-11-30T05:42:59.417Z,4.47
2023-11-30T05:45:48.808Z,6.23
2023-11-30T05:48:38.931Z,5.30
2023-11-30T05:51:28.891Z,5.60
2023-11-30T05:54:20.412Z,5.47
2023-11-30T05:57:07.547Z,5.37
2023-11-30T05:59:56.712Z,6.57
2023-11-30T06:02:46.029Z,6.40
2023-11-30T06:05:34.764Z,5.40
2023-11-30T06:08:21.802Z,6.03
2023-11-30T06:11:09.972Z,6.13
2023-11-30T06:14:01.608Z,5.60
2023-11-30T06:16:51.479Z,5.57
2023-11-30T06:19:40.460Z,5.70
2023-11-30T06:22:31.126Z,5.57
2023-11-30T06:25:20.715Z,6.03
2023-11-30T06:28:07.331Z,5.57
2023-11-30T06:30:55.765Z,5.57
2023-11-30T06:33:43.665Z,6.00
2023-11-30T06:36:32.836Z,5.67
2023-11-30T06:39:33.535Z,5.03
2023-11-30T06:42:20.630Z,5.43
2023-11-30T06:45:11.465Z,5.80
2023-11-30T06:48:01.672Z,5.43
2023-11-30T06:50:48.692Z,6.07
2023-11-30T06:53:40.166Z,5.60
2023-11-30T06:56:28.959Z,6.43
2023-11-30T06:59:15.854Z,6.43
2023-11-30T07:02:05.380Z,5.53
2023-11-30T07:04:54.592Z,6.43
2023-11-30T07:07:41.667Z,5.80
2023-11-30T07:10:30.745Z,6.23
2023-11-30T07:13:19.119Z,7.37
2023-11-30T07:16:11.766Z,5.40
2023-11-30T07:18:58.853Z,6.70
2023-11-30T07:21:49.096Z,6.27
2023-11-30T07:24:36.152Z,8.17
2023-11-30T07:27:30.958Z,7.90
2023-11-30T07:30:20.124Z,9.83
2023-11-30T07:33:23.605Z,11.07
2023-11-30T07:36:14.631Z,12.27
2023-11-30T07:39:03.550Z,8.53
2023-11-30T07:41:54.290Z,6.03
2023-11-30T07:44:43.359Z,6.40
2023-11-30T07:47:31.367Z,5.63
2023-11-30T07:50:18.325Z,5.60
2023-11-30T07:53:11.284Z,5.97
2023-11-30T07:56:02.860Z,5.37
2023-11-30T07:58:52.129Z,6.70
2023-11-30T08:01:43.298Z,11.77
2023-11-30T08:04:34.710Z,10.43
2023-11-30T08:07:28.313Z,13.57
2023-11-30T08:10:15.477Z,14.60
2023-11-30T08:13:02.591Z,10.73
2023-11-30T08:15:51.600Z,10.53
2023-11-30T08:18:42.616Z,11.17
2023-11-30T08:21:31.900Z,10.70
2023-11-30T08:24:18.587Z,10.60
2023-11-30T08:27:09.795Z,10.07
2023-11-30T08:30:08.736Z,13.80
2023-11-30T08:32:56.618Z,13.23
2023-11-30T08:35:51.591Z,13.60
2023-11-30T08:38:45.051Z,8.43
2023-11-30T08:41:32.532Z,7.73
2023-11-30T08:44:24.116Z,7.63
2023-11-30T08:47:13.187Z,7.50
2023-11-30T08:50:00.378Z,7.30
2023-11-30T08:52:47.482Z,9.20
2023-11-30T08:55:36.934Z,8.40
2023-11-30T08:58:25.494Z,9.67
2023-11-30T09:01:15.036Z,8.90
2023-11-30T09:04:06.379Z,10.90
2023-11-30T09:06:54.008Z,10.57
2023-11-30T09:09:47.575Z,10.83
2023-11-30T09:12:40.787Z,8.57
2023-11-30T09:15:32.519Z,10.00
2023-11-30T09:18:20.047Z,9.63
2023-11-30T09:21:08.749Z,9.77
2023-11-30T09:23:57.396Z,8.87
2023-11-30T09:26:46.494Z,9.40
2023-11-30T09:29:39.474Z,8.70
2023-11-30T09:32:28.516Z,9.00
2023-11-30T09:35:15.940Z,7.57
2023-11-30T09:38:02.730Z,8.70
2023-11-30T09:40:50.547Z,8.30
2023-11-30T09:43:38.451Z,8.33
2023-11-30T09:46:31.369Z,9.07
2023-11-30T09:49:25.711Z,10.17
2023-11-30T09:52:15.080Z,9.53
2023-11-30T09:55:05.131Z,9.70
2023-11-30T09:57:54.179Z,10.37
2023-11-30T10:00:43.725Z,9.63
2023-11-30T10:03:43.748Z,9.87
2023-11-30T10:06:34.006Z,8.80
2023-11-30T10:09:23.079Z,9.77
2023-11-30T10:12:12.549Z,10.70
2023-11-30T10:15:03.232Z,9.77
2023-11-30T10:17:53.231Z,9.77
2023-11-30T10:20:45.206Z,10.43
2023-11-30T10:23:32.151Z,8.63
2023-11-30T10:26:20.080Z,8.70
2023-11-30T10:29:10.564Z,9.60
2023-11-30T10:32:01.635Z,9.97
2023-11-30T10:34:53.568Z,9.83
2023-11-30T10:37:48.287Z,8.80
2023-11-30T10:40:37.241Z,9.37
2023-11-30T10:43:30.209Z,9.43
2023-11-30T10:46:20.311Z,8.93
2023-11-30T10:49:11.390Z,10.10
2023-11-30T10:52:05.318Z,8.83
2023-11-30T10:55:22.894Z,8.97
2023-11-30T10:58:13.229Z,9.27
2023-11-30T11:01:28.590Z,9.50
2023-11-30T11:04:19.656Z,8.77
2023-11-30T11:07:17.972Z,10.00
2023-11-30T11:10:15.323Z,9.13
2023-11-30T11:13:04.184Z,10.03
2023-11-30T11:16:02.204Z,9.97
2023-11-30T11:18:51.590Z,9.77
2023-11-30T11:21:42.849Z,10.47
2023-11-30T11:24:33.851Z,12.20
2023-11-30T11:27:40.457Z,10.17
2023-11-30T11:30:30.012Z,9.53
2023-11-30T11:33:22.282Z,9.90
2023-11-30T11:36:14.981Z,8.23
2023-11-30T11:39:03.992Z,8.20
2023-11-30T11:41:51.636Z,10.53
2023-11-30T11:44:45.975Z,9.73
2023-11-30T11:47:41.344Z,9.70
2023-11-30T11:50:28.643Z,9.83
2023-11-30T11:53:17.625Z,10.07
2023-11-30T11:56:12.013Z,9.23
2023-11-30T11:59:08.337Z,8.70
2023-11-30T12:01:59.172Z,8.47
2023-11-30T12:04:47.854Z,9.23
2023-11-30T12:07:49.013Z,8.73
2023-11-30T12:10:41.500Z,8.97
2023-11-30T12:13:29.309Z,8.40
2023-11-30T12:16:18.911Z,8.87
2023-11-30T12:19:34.395Z,8.53
2023-11-30T12:22:32.867Z,9.83
2023-11-30T12:25:22.586Z,8.73
2023-11-30T12:28:13.669Z,9.10
2023-11-30T12:31:00.614Z,8.90
2023-11-30T12:33:49.342Z,8.93
2023-11-30T12:36:42.353Z,9.77
2023-11-30T12:39:35.990Z,9.77
2023-11-30T12:42:25.529Z,8.57
2023-11-30T12:45:13.923Z,10.03
2023-11-30T12:48:03.493Z,9.77
2023-11-30T12:50:54.711Z,8.33
2023-11-30T12:53:41.697Z,9.87
2023-11-30T12:56:34.603Z,9.30
2023-11-30T12:59:21.967Z,8.90
2023-11-30T13:02:11.166Z,7.70
2023-11-30T13:05:00.065Z,8.77
2023-11-30T13:07:53.809Z,9.70
2023-11-30T13:10:44.717Z,9.20
2023-11-30T13:13:41.931Z,14.70
2023-11-30T13:16:32.679Z,15.47
2023-11-30T13:19:24.810Z,12.37
2023-11-30T13:22:15.079Z,12.20
2023-11-30T13:25:07.721Z,13.83
2023-11-30T13:27:58.927Z,11.20
2023-11-30T13:30:52.045Z,11.27
2023-11-30T13:33:39.732Z,10.03
2023-11-30T13:36:28.967Z,9.30
2023-11-30T13:39:16.748Z,9.50
2023-11-30T13:42:08.531Z,12.37
2023-11-30T13:45:01.060Z,18.57
2023-11-30T13:47:51.757Z,22.20
2023-11-30T13:50:49.444Z,15.87
2023-11-30T13:53:45.276Z,11.43
2023-11-30T13:56:32.707Z,9.97
2023-11-30T13:59:20.191Z,9.83
2023-11-30T14:02:08.725Z,10.40
2023-11-30T14:04:58.089Z,9.07
2023-11-30T14:07:47.553Z,9.70
2023-11-30T14:10:39.116Z,9.47
2023-11-30T14:16:29.646Z,9.57
2023-11-30T14:19:17.969Z,8.60
2023-11-30T14:22:11.880Z,8.97
2023-11-30T14:25:00.994Z,9.30
2023-11-30T14:27:50.085Z,10.67
2023-11-30T14:30:41.230Z,13.43
2023-11-30T14:33:29.323Z,9.67
2023-11-30T14:36:19.042Z,9.93
2023-11-30T14:39:12.382Z,8.80
2023-11-30T14:41:59.746Z,8.27
2023-11-30T14:44:49.074Z,10.13
2023-11-30T14:48:29.949Z,9.73
2023-11-30T14:51:19.164Z,13.47
2023-11-30T14:54:35.476Z,13.67
2023-11-30T14:57:22.724Z,12.07
2023-11-30T15:00:20.697Z,12.77
2023-11-30T15:03:10.779Z,9.90
2023-11-30T15:06:01.384Z,10.80
2023-11-30T15:08:54.113Z,10.37
2023-11-30T15:11:44.690Z,10.53
2023-11-30T15:14:33.978Z,9.03
2023-11-30T15:17:23.153Z,10.27
2023-11-30T15:20:35.560Z,8.77
2023-11-30T15:23:22.265Z,6.57
2023-11-30T15:26:16.160Z,7.67
2023-11-30T15:29:06.635Z,7.83
2023-11-30T15:31:57.689Z,7.63
2023-11-30T15:34:46.706Z,7.63
2023-11-30T15:37:36.432Z,6.87
2023-11-30T15:40:32.164Z,7.23
2023-11-30T15:43:26.145Z,9.23
2023-11-30T15:46:40.227Z,7.23
2023-11-30T15:49:29.420Z,7.37
2023-11-30T15:52:16.379Z,6.28
2023-11-30T15:55:12.115Z,7.37
2023-11-30T15:58:01.361Z,7.32
2023-11-30T16:00:55.937Z,5.95
2023-11-30T16:03:45.334Z,5.67
2023-11-30T16:06:37.896Z,5.55
2023-11-30T16:09:26.215Z,8.48
2023-11-30T16:12:13.821Z,10.18
2023-11-30T16:15:01.196Z,9.60
2023-11-30T16:18:04.858Z,7.55
2023-11-30T16:21:01.364Z,7.68
2023-11-30T16:23:55.206Z,7.10
2023-11-30T16:26:58.496Z,5.57
2023-11-30T16:30:45.841Z,7.18
2023-11-30T16:34:03.328Z,6.03
2023-11-30T16:37:07.365Z,5.85
2023-11-30T16:40:02.320Z,5.70
2023-11-30T16:43:01.552Z,6.07
2023-11-30T16:45:56.517Z,5.45
2023-11-30T16:48:49.894Z,4.88
2023-11-30T16:51:48.884Z,4.30
2023-11-30T16:54:55.094Z,5.35
2023-11-30T16:57:48.969Z,4.75
2023-11-30T17:00:51.441Z,5.05
2023-11-30T17:03:41.096Z,5.15
2023-11-30T17:06:32.282Z,6.88
2023-11-30T17:09:22.143Z,7.32
2023-11-30T17:12:12.570Z,6.78
2023-11-30T17:14:59.287Z,6.47
2023-11-30T17:17:50.620Z,6.72
2023-11-30T17:20:38.905Z,8.10
2023-11-30T17:23:28.006Z,6.97
2023-11-30T17:26:20.291Z,5.70
2023-11-30T17:29:14.889Z,6.38
2023-11-30T17:32:01.741Z,6.28
2023-11-30T17:35:22.615Z,6.53
2023-11-30T17:38:20.850Z,8.98
2023-11-30T17:41:11.664Z,8.13
2023-11-30T17:44:02.088Z,6.53
2023-11-30T17:46:56.223Z,7.72
2023-11-30T17:50:11.308Z,6.68
2023-11-30T17:52:58.527Z,8.40
2023-11-30T17:55:47.831Z,8.90
2023-11-30T17:58:39.147Z,8.32
2023-11-30T18:01:26.129Z,9.60
2023-11-30T18:04:14.251Z,7.18
2023-11-30T18:07:05.665Z,7.38
2023-11-30T18:09:58.846Z,10.02
2023-11-30T18:12:48.119Z,12.32
2023-11-30T18:15:38.016Z,19.25
2023-11-30T18:18:25.960Z,8.93
2023-11-30T18:21:14.288Z,7.95
2023-11-30T18:24:04.718Z,8.30
2023-11-30T18:26:56.328Z,5.40
2023-11-30T18:29:43.946Z,6.18
2023-11-30T18:32:33.286Z,5.07
2023-11-30T18:35:25.188Z,5.20
2023-11-30T18:38:15.822Z,5.28
2023-11-30T18:41:05.244Z,6.43
2023-11-30T18:43:52.140Z,5.85
2023-11-30T18:46:41.945Z,6.50
2023-11-30T18:49:31.199Z,5.35
2023-11-30T18:52:20.307Z,5.60
2023-11-30T18:55:10.016Z,5.75
2023-11-30T18:57:57.871Z,6.30
2023-11-30T19:00:45.816Z,7.25
2023-11-30T19:03:35.956Z,6.28
2023-11-30T19:06:28.702Z,6.95
2023-11-30T19:09:20.325Z,7.10
2023-11-30T19:12:12.703Z,5.50
2023-11-30T19:15:04.319Z,6.28
2023-11-30T19:17:53.532Z,7.22
2023-11-30T19:20:40.736Z,7.82
2023-11-30T19:23:30.163Z,7.20
2023-11-30T19:26:19.779Z,6.70
2023-11-30T19:29:08.256Z,7.20
2023-11-30T19:31:57.642Z,6.88
2023-11-30T19:34:46.869Z,4.25
2023-11-30T19:37:35.986Z,5.57
2023-11-30T19:40:30.036Z,5.90
2023-11-30T19:43:17.853Z,4.85
2023-11-30T19:46:11.708Z,6.57
2023-11-30T19:49:01.422Z,5.22
2023-11-30T19:51:51.019Z,5.13
2023-11-30T19:54:40.266Z,5.28
2023-11-30T19:57:31.558Z,4.90
2023-11-30T20:00:24.494Z,6.45
2023-11-30T20:03:15.979Z,5.47
2023-11-30T20:06:03.390Z,7.47
2023-11-30T20:08:52.961Z,6.30
2023-11-30T20:11:39.963Z,5.93
2023-11-30T20:14:28.418Z,4.88
2023-11-30T20:17:17.556Z,5.45
2023-11-30T20:20:07.376Z,6.25
2023-11-30T20:22:57.129Z,5.40
2023-11-30T20:25:45.004Z,5.53
2023-11-30T20:28:32.898Z,6.07
2023-11-30T20:31:24.621Z,6.07
2023-11-30T20:34:12.816Z,5.47
2023-11-30T20:37:06.622Z,5.63
2023-11-30T20:39:55.153Z,6.03
2023-11-30T20:42:42.909Z,6.20
2023-11-30T20:45:32.362Z,6.65
2023-11-30T20:48:23.606Z,6.40
2023-11-30T20:51:25.083Z,7.57
2023-11-30T20:54:16.400Z,8.60
2023-11-30T20:57:05.641Z,5.65
2023-11-30T20:59:56.749Z,6.03
2023-11-30T21:02:46.287Z,6.97
2023-11-30T21:05:37.080Z,5.82
2023-11-30T21:08:26.099Z,6.47
2023-11-30T21:11:21.273Z,7.97
2023-11-30T21:14:10.020Z,8.35
2023-11-30T21:16:56.976Z,9.10
2023-11-30T21:19:46.434Z,8.70
2023-11-30T21:22:37.732Z,8.60
2023-11-30T21:25:28.878Z,5.43
2023-11-30T21:28:24.700Z,7.80
2023-11-30T21:31:14.096Z,7.50
2023-11-30T21:34:01.158Z,8.15
2023-11-30T21:36:47.865Z,8.10
2023-11-30T21:39:38.023Z,10.52
2023-11-30T21:42:28.587Z,9.25
2023-11-30T21:45:24.696Z,8.60
2023-11-30T21:48:16.123Z,8.68
2023-11-30T21:51:03.313Z,8.32
2023-11-30T21:54:02.367Z,8.27
2023-11-30T21:56:54.513Z,8.10
2023-11-30T21:59:48.551Z,7.43
2023-11-30T22:02:48.585Z,8.10
2023-11-30T22:05:37.791Z,6.32
2023-11-30T22:08:33.586Z,6.57
2023-11-30T22:11:26.996Z,4.32
2023-11-30T22:14:17.161Z,5.32
2023-11-30T22:17:08.006Z,6.70
2023-11-30T22:20:01.692Z,6.40
2023-11-30T22:22:52.913Z,5.13
2023-11-30T22:25:53.309Z,6.10
2023-11-30T22:28:50.185Z,5.40
2023-11-30T22:31:39.606Z,6.20
2023-11-30T22:34:27.625Z,6.30
2023-11-30T22:37:22.998Z,6.15
2023-11-30T22:40:13.420Z,5.20
2023-11-30T22:43:00.043Z,5.82
2023-11-30T22:45:47.066Z,5.82
2023-11-30T22:48:38.901Z,5.55
2023-11-30T22:51:25.747Z,5.47
2023-11-30T22:54:16.397Z,5.22
2023-11-30T22:57:03.950Z,5.75
2023-11-30T22:59:52.992Z,6.03
2023-11-30T23:02:43.115Z,7.00
2023-11-30T23:05:32.906Z,5.57
2023-11-30T23:08:19.829Z,5.65
2023-11-30T23:11:19.481Z,6.40
2023-11-30T23:14:06.720Z,4.85
2023-11-30T23:16:56.593Z,6.25
2023-11-30T23:19:43.956Z,5.93
2023-11-30T23:22:33.265Z,5.78
2023-11-30T23:25:25.179Z,5.50
2023-11-30T23:28:15.319Z,5.70
2023-11-30T23:31:02.975Z,7.10
2023-11-30T23:33:52.366Z,6.90
2023-11-30T23:36:41.695Z,7.72
2023-11-30T23:39:31.293Z,6.75
2023-11-30T23:42:19.165Z,5.22
2023-11-30T23:45:11.985Z,6.03
2023-11-30T23:48:01.075Z,7.80
2023-11-30T23:50:50.694Z,6.75
2023-11-30T23:53:37.726Z,7.80
2023-11-30T23:56:24.674Z,5.75
2023-11-30T23:59:13.891Z,6.95
